sensor_id;sensor_type;location;lat;lon;timestamp;pressure;altitude;pressure_sealevel;temperature;humidity
76611;BME280;65503;48.534;9.062;2023-07-24T00:00:49;96312.06;;;20.70;59.96
76611;BME280;65503;48.534;9.062;2023-07-24T00:03:16;96299.19;;;20.72;60.34
76611;BME280;65503;48.534;9.062;2023-07-24T00:05:42;96301.22;;;20.75;60.90
76611;BME280;65503;48.534;9.062;2023-07-24T00:08:09;96297.63;;;20.71;60.81
76611;BME280;65503;48.534;9.062;2023-07-24T00:10:35;96294.44;;;20.69;60.82
76611;BME280;65503;48.534;9.062;2023-07-24T00:13:02;96303.41;;;20.64;60.59
76611;BME280;65503;48.534;9.062;2023-07-24T00:15:29;96293.00;;;20.54;60.83
76611;BME280;65503;48.534;9.062;2023-07-24T00:17:56;96300.53;;;20.52;60.61
76611;BME280;65503;48.534;9.062;2023-07-24T00:20:22;96300.38;;;20.48;60.55
76611;BME280;65503;48.534;9.062;2023-07-24T00:22:53;96298.78;;;20.47;59.92
76611;BME280;65503;48.534;9.062;2023-07-24T00:25:19;96294.06;;;20.44;59.94
76611;BME280;65503;48.534;9.062;2023-07-24T00:27:46;96299.53;;;20.39;59.86
76611;BME280;65503;48.534;9.062;2023-07-24T00:30:12;96294.66;;;20.41;58.89
76611;BME280;65503;48.534;9.062;2023-07-24T00:32:39;96294.22;;;20.48;58.01
76611;BME280;65503;48.534;9.062;2023-07-24T00:35:06;96311.53;;;20.50;58.43
76611;BME280;65503;48.534;9.062;2023-07-24T00:37:33;96305.53;;;20.45;58.87
76611;BME280;65503;48.534;9.062;2023-07-24T00:39:59;96314.03;;;20.47;58.47
76611;BME280;65503;48.534;9.062;2023-07-24T00:42:26;96300.97;;;20.45;59.11
76611;BME280;65503;48.534;9.062;2023-07-24T00:44:52;96305.25;;;20.24;59.09
76611;BME280;65503;48.534;9.062;2023-07-24T00:47:19;96304.47;;;20.23;58.97
76611;BME280;65503;48.534;9.062;2023-07-24T00:49:46;96297.72;;;20.26;59.10
76611;BME280;65503;48.534;9.062;2023-07-24T00:52:14;96301.19;;;20.27;58.10
76611;BME280;65503;48.534;9.062;2023-07-24T00:54:43;96288.63;;;20.27;58.02
76611;BME280;65503;48.534;9.062;2023-07-24T00:57:10;96283.28;;;20.27;57.47
76611;BME280;65503;48.534;9.062;2023-07-24T00:59:36;96286.25;;;20.26;57.30
76611;BME280;65503;48.534;9.062;2023-07-24T01:02:03;96277.44;;;20.25;57.57
76611;BME280;65503;48.534;9.062;2023-07-24T01:04:29;96276.34;;;20.26;57.09
76611;BME280;65503;48.534;9.062;2023-07-24T01:06:56;96263.44;;;20.28;56.96
76611;BME280;65503;48.534;9.062;2023-07-24T01:09:23;96259.22;;;20.27;56.50
76611;BME280;65503;48.534;9.062;2023-07-24T01:12:39;96253.41;;;20.25;56.48
76611;BME280;65503;48.534;9.062;2023-07-24T01:14:46;96256.06;;;20.25;55.23
76611;BME280;65503;48.534;9.062;2023-07-24T01:17:21;96258.09;;;20.28;56.27
76611;BME280;65503;48.534;9.062;2023-07-24T01:19:55;96255.94;;;20.30;56.50
76611;BME280;65503;48.534;9.062;2023-07-24T01:22:38;96245.25;;;20.30;55.85
76611;BME280;65503;48.534;9.062;2023-07-24T01:25:23;96250.59;;;20.30;53.58
76611;BME280;65503;48.534;9.062;2023-07-24T01:27:53;96253.84;;;20.49;53.19
76611;BME280;65503;48.534;9.062;2023-07-24T01:30:19;96263.94;;;20.70;52.77
76611;BME280;65503;48.534;9.062;2023-07-24T01:32:46;96255.63;;;20.80;52.55
76611;BME280;65503;48.534;9.062;2023-07-24T01:35:13;96262.09;;;20.79;53.17
76611;BME280;65503;48.534;9.062;2023-07-24T01:37:42;96261.59;;;20.77;53.49
76611;BME280;65503;48.534;9.062;2023-07-24T01:40:10;96262.69;;;20.76;53.73
76611;BME280;65503;48.534;9.062;2023-07-24T01:42:38;96256.75;;;20.79;53.00
76611;BME280;65503;48.534;9.062;2023-07-24T01:45:05;96257.53;;;20.88;52.73
76611;BME280;65503;48.534;9.062;2023-07-24T01:47:32;96260.06;;;20.93;52.70
76611;BME280;65503;48.534;9.062;2023-07-24T01:49:59;96261.78;;;20.89;53.56
76611;BME280;65503;48.534;9.062;2023-07-24T01:52:26;96248.72;;;20.87;53.42
76611;BME280;65503;48.534;9.062;2023-07-24T01:54:52;96258.03;;;20.90;53.48
76611;BME280;65503;48.534;9.062;2023-07-24T01:57:19;96250.59;;;20.87;53.13
76611;BME280;65503;48.534;9.062;2023-07-24T01:59:45;96238.81;;;20.88;53.27
76611;BME280;65503;48.534;9.062;2023-07-24T02:02:12;96230.94;;;20.83;53.56
76611;BME280;65503;48.534;9.062;2023-07-24T02:04:38;96219.41;;;20.74;53.66
76611;BME280;65503;48.534;9.062;2023-07-24T02:07:05;96232.00;;;20.65;53.99
76611;BME280;65503;48.534;9.062;2023-07-24T02:09:31;96228.19;;;20.57;54.01
76611;BME280;65503;48.534;9.062;2023-07-24T02:11:58;96230.88;;;20.48;54.00
76611;BME280;65503;48.534;9.062;2023-07-24T02:14:24;96215.44;;;20.45;54.26
76611;BME280;65503;48.534;9.062;2023-07-24T02:16:53;96210.72;;;20.42;54.86
76611;BME280;65503;48.534;9.062;2023-07-24T02:19:19;96193.75;;;20.38;54.98
76611;BME280;65503;48.534;9.062;2023-07-24T02:21:46;96195.78;;;20.33;55.38
76611;BME280;65503;48.534;9.062;2023-07-24T02:24:12;96195.56;;;20.29;54.68
76611;BME280;65503;48.534;9.062;2023-07-24T02:26:39;96190.34;;;20.24;54.95
76611;BME280;65503;48.534;9.062;2023-07-24T02:29:05;96186.75;;;20.20;54.99
76611;BME280;65503;48.534;9.062;2023-07-24T02:31:32;96187.97;;;20.14;55.16
76611;BME280;65503;48.534;9.062;2023-07-24T02:33:59;96192.97;;;20.07;55.29
76611;BME280;65503;48.534;9.062;2023-07-24T02:36:25;96203.63;;;19.98;55.00
76611;BME280;65503;48.534;9.062;2023-07-24T02:38:52;96190.44;;;20.02;54.59
76611;BME280;65503;48.534;9.062;2023-07-24T02:41:19;96188.41;;;19.99;54.74
76611;BME280;65503;48.534;9.062;2023-07-24T02:43:46;96187.91;;;19.97;55.22
76611;BME280;65503;48.534;9.062;2023-07-24T02:46:12;96189.13;;;19.91;55.35
76611;BME280;65503;48.534;9.062;2023-07-24T02:48:39;96188.66;;;19.89;55.32
76611;BME280;65503;48.534;9.062;2023-07-24T02:51:05;96179.09;;;19.88;55.31
76611;BME280;65503;48.534;9.062;2023-07-24T02:53:32;96174.34;;;19.85;55.61
76611;BME280;65503;48.534;9.062;2023-07-24T02:56:01;96174.00;;;19.77;55.62
76611;BME280;65503;48.534;9.062;2023-07-24T02:58:28;96166.59;;;19.74;55.75
76611;BME280;65503;48.534;9.062;2023-07-24T03:01:02;96161.72;;;19.76;55.91
76611;BME280;65503;48.534;9.062;2023-07-24T03:03:29;96167.69;;;19.73;55.58
76611;BME280;65503;48.534;9.062;2023-07-24T03:05:56;96165.31;;;19.72;55.72
76611;BME280;65503;48.534;9.062;2023-07-24T03:08:22;96162.00;;;19.66;55.73
76611;BME280;65503;48.534;9.062;2023-07-24T03:10:49;96168.91;;;19.67;55.55
76611;BME280;65503;48.534;9.062;2023-07-24T03:13:15;96168.00;;;19.72;55.44
76611;BME280;65503;48.534;9.062;2023-07-24T03:15:42;96155.88;;;19.66;55.77
76611;BME280;65503;48.534;9.062;2023-07-24T03:18:09;96161.53;;;19.64;55.93
76611;BME280;65503;48.534;9.062;2023-07-24T03:20:35;96171.28;;;19.69;55.67
76611;BME280;65503;48.534;9.062;2023-07-24T03:23:02;96181.19;;;19.68;56.47
76611;BME280;65503;48.534;9.062;2023-07-24T03:25:29;96178.03;;;19.66;56.45
76611;BME280;65503;48.534;9.062;2023-07-24T03:27:57;96179.25;;;19.60;57.02
76611;BME280;65503;48.534;9.062;2023-07-24T03:30:24;96172.66;;;19.58;57.63
76611;BME280;65503;48.534;9.062;2023-07-24T03:32:51;96167.31;;;19.58;57.54
76611;BME280;65503;48.534;9.062;2023-07-24T03:35:17;96170.91;;;19.53;58.11
76611;BME280;65503;48.534;9.062;2023-07-24T03:37:44;96171.50;;;19.50;58.04
76611;BME280;65503;48.534;9.062;2023-07-24T03:40:11;96176.97;;;19.45;58.09
76611;BME280;65503;48.534;9.062;2023-07-24T03:42:38;96173.78;;;19.43;58.19
76611;BME280;65503;48.534;9.062;2023-07-24T03:45:05;96179.91;;;19.44;58.72
76611;BME280;65503;48.534;9.062;2023-07-24T03:47:32;96168.09;;;19.36;58.37
76611;BME280;65503;48.534;9.062;2023-07-24T03:49:59;96157.22;;;19.32;58.56
76611;BME280;65503;48.534;9.062;2023-07-24T03:52:25;96153.22;;;19.44;58.30
76611;BME280;65503;48.534;9.062;2023-07-24T03:54:52;96156.94;;;19.56;58.23
76611;BME280;65503;48.534;9.062;2023-07-24T03:57:19;96157.75;;;19.65;58.57
76611;BME280;65503;48.534;9.062;2023-07-24T03:59:45;96155.94;;;19.74;58.03
76611;BME280;65503;48.534;9.062;2023-07-24T04:02:11;96154.06;;;19.84;57.78
76611;BME280;65503;48.534;9.062;2023-07-24T04:04:38;96152.25;;;19.93;57.57
76611;BME280;65503;48.534;9.062;2023-07-24T04:07:05;96156.13;;;19.87;57.58
76611;BME280;65503;48.534;9.062;2023-07-24T04:09:32;96146.41;;;19.91;57.72
76611;BME280;65503;48.534;9.062;2023-07-24T04:11:59;96158.53;;;19.97;57.63
76611;BME280;65503;48.534;9.062;2023-07-24T04:14:25;96153.63;;;19.90;57.81
76611;BME280;65503;48.534;9.062;2023-07-24T04:16:52;96148.59;;;19.89;57.98
76611;BME280;65503;48.534;9.062;2023-07-24T04:19:19;96136.34;;;19.88;57.59
76611;BME280;65503;48.534;9.062;2023-07-24T04:21:46;96131.97;;;19.92;57.75
76611;BME280;65503;48.534;9.062;2023-07-24T04:24:12;96129.00;;;19.93;57.76
76611;BME280;65503;48.534;9.062;2023-07-24T04:26:39;96121.94;;;20.06;57.42
76611;BME280;65503;48.534;9.062;2023-07-24T04:29:06;96119.75;;;20.08;57.62
76611;BME280;65503;48.534;9.062;2023-07-24T04:31:33;96118.16;;;20.07;57.64
76611;BME280;65503;48.534;9.062;2023-07-24T04:34:00;96109.41;;;20.15;57.16
76611;BME280;65503;48.534;9.062;2023-07-24T04:36:26;96113.47;;;20.12;56.82
76611;BME280;65503;48.534;9.062;2023-07-24T04:38:53;96116.78;;;20.18;57.31
76611;BME280;65503;48.534;9.062;2023-07-24T04:41:20;96124.50;;;20.28;56.71
76611;BME280;65503;48.534;9.062;2023-07-24T04:43:46;96122.31;;;20.30;56.64
76611;BME280;65503;48.534;9.062;2023-07-24T04:46:13;96120.16;;;20.32;56.51
76611;BME280;65503;48.534;9.062;2023-07-24T04:48:39;96117.94;;;20.34;56.76
76611;BME280;65503;48.534;9.062;2023-07-24T04:51:06;96127.53;;;20.35;56.32
76611;BME280;65503;48.534;9.062;2023-07-24T04:53:32;96133.19;;;20.34;56.86
76611;BME280;65503;48.534;9.062;2023-07-24T04:55:59;96130.06;;;20.32;56.60
76611;BME280;65503;48.534;9.062;2023-07-24T04:58:26;96126.44;;;20.36;56.62
76611;BME280;65503;48.534;9.062;2023-07-24T05:00:52;96136.03;;;20.46;56.03
76611;BME280;65503;48.534;9.062;2023-07-24T05:03:19;96133.84;;;20.48;56.26
76611;BME280;65503;48.534;9.062;2023-07-24T05:05:54;96131.16;;;20.56;55.80
76611;BME280;65503;48.534;9.062;2023-07-24T05:08:21;96147.69;;;20.58;55.87
76611;BME280;65503;48.534;9.062;2023-07-24T05:10:53;96145.97;;;20.62;55.85
76611;BME280;65503;48.534;9.062;2023-07-24T05:13:20;96139.66;;;20.58;55.34
76611;BME280;65503;48.534;9.062;2023-07-24T05:15:46;96128.66;;;20.69;55.63
76611;BME280;65503;48.534;9.062;2023-07-24T05:18:13;96135.25;;;20.80;55.02
76611;BME280;65503;48.534;9.062;2023-07-24T05:20:46;96140.16;;;21.12;54.41
76611;BME280;65503;48.534;9.062;2023-07-24T05:23:14;96149.09;;;21.33;54.29
76611;BME280;65503;48.534;9.062;2023-07-24T05:25:40;96158.50;;;21.57;53.39
76611;BME280;65503;48.534;9.062;2023-07-24T05:28:07;96174.53;;;21.74;52.77
76611;BME280;65503;48.534;9.062;2023-07-24T05:30:34;96186.28;;;21.81;52.82
76611;BME280;65503;48.534;9.062;2023-07-24T05:33:00;96196.88;;;21.78;52.49
76611;BME280;65503;48.534;9.062;2023-07-24T05:35:27;96190.28;;;21.67;52.96
76611;BME280;65503;48.534;9.062;2023-07-24T05:37:53;96187.81;;;21.44;53.17
76611;BME280;65503;48.534;9.062;2023-07-24T05:40:20;96185.03;;;21.15;53.84
76611;BME280;65503;48.534;9.062;2023-07-24T05:42:46;96190.34;;;20.98;54.43
76611;BME280;65503;48.534;9.062;2023-07-24T05:45:14;96205.63;;;20.89;54.64
76611;BME280;65503;48.534;9.062;2023-07-24T05:47:43;96197.41;;;20.85;54.38
76611;BME280;65503;48.534;9.062;2023-07-24T05:50:10;96202.47;;;20.95;54.81
76611;BME280;65503;48.534;9.062;2023-07-24T05:52:36;96214.41;;;20.98;54.32
76611;BME280;65503;48.534;9.062;2023-07-24T05:55:03;96219.47;;;20.99;53.99
76611;BME280;65503;48.534;9.062;2023-07-24T05:57:30;96220.25;;;21.00;53.98
76611;BME280;65503;48.534;9.062;2023-07-24T05:59:56;96221.84;;;21.01;53.94
76611;BME280;65503;48.534;9.062;2023-07-24T06:02:23;96212.22;;;21.09;53.17
76611;BME280;65503;48.534;9.062;2023-07-24T06:04:50;96217.91;;;21.16;53.46
76611;BME280;65503;48.534;9.062;2023-07-24T06:07:16;96210.84;;;21.28;53.04
76611;BME280;65503;48.534;9.062;2023-07-24T06:09:43;96196.03;;;21.39;52.90
76611;BME280;65503;48.534;9.062;2023-07-24T06:12:09;96184.34;;;21.53;52.74
76611;BME280;65503;48.534;9.062;2023-07-24T06:14:36;96182.59;;;21.57;52.24
76611;BME280;65503;48.534;9.062;2023-07-24T06:17:03;96176.28;;;21.61;52.72
76611;BME280;65503;48.534;9.062;2023-07-24T06:19:30;96170.44;;;21.68;51.54
76611;BME280;65503;48.534;9.062;2023-07-24T06:21:56;96161.88;;;21.83;51.75
76611;BME280;65503;48.534;9.062;2023-07-24T06:24:23;96149.44;;;21.78;52.95
76611;BME280;65503;48.534;9.062;2023-07-24T06:26:50;96149.00;;;21.68;53.35
76611;BME280;65503;48.534;9.062;2023-07-24T06:29:16;96145.69;;;21.71;53.55
76611;BME280;65503;48.534;9.062;2023-07-24T06:31:43;96137.22;;;21.60;53.92
76611;BME280;65503;48.534;9.062;2023-07-24T06:34:09;96138.66;;;21.58;53.95
76611;BME280;65503;48.534;9.062;2023-07-24T06:36:36;96149.63;;;21.65;54.00
76611;BME280;65503;48.534;9.062;2023-07-24T06:39:02;96140.66;;;21.69;53.60
76611;BME280;65503;48.534;9.062;2023-07-24T06:41:29;96149.81;;;21.68;53.36
76611;BME280;65503;48.534;9.062;2023-07-24T06:43:55;96146.94;;;21.73;53.39
76611;BME280;65503;48.534;9.062;2023-07-24T06:46:22;96143.59;;;21.85;53.59
76611;BME280;65503;48.534;9.062;2023-07-24T06:48:49;96138.81;;;21.99;53.21
76611;BME280;65503;48.534;9.062;2023-07-24T06:51:15;96125.25;;;22.04;52.30
76611;BME280;65503;48.534;9.062;2023-07-24T06:53:42;96136.34;;;22.23;52.75
76611;BME280;65503;48.534;9.062;2023-07-24T06:56:08;96162.84;;;22.46;52.39
76611;BME280;65503;48.534;9.062;2023-07-24T06:58:35;96171.06;;;22.70;51.92
76611;BME280;65503;48.534;9.062;2023-07-24T07:01:05;96174.28;;;22.84;51.77
76611;BME280;65503;48.534;9.062;2023-07-24T07:03:32;96166.44;;;22.79;51.14
76611;BME280;65503;48.534;9.062;2023-07-24T07:06:01;96186.38;;;22.78;51.50
76611;BME280;65503;48.534;9.062;2023-07-24T07:08:29;96195.25;;;22.91;50.88
76611;BME280;65503;48.534;9.062;2023-07-24T07:10:57;96199.56;;;23.04;50.88
76611;BME280;65503;48.534;9.062;2023-07-24T07:13:24;96201.38;;;23.33;50.69
76611;BME280;65503;48.534;9.062;2023-07-24T07:15:50;96206.19;;;23.60;50.35
76611;BME280;65503;48.534;9.062;2023-07-24T07:18:17;96192.41;;;24.07;49.20
76611;BME280;65503;48.534;9.062;2023-07-24T07:20:52;96198.72;;;24.59;47.50
76611;BME280;65503;48.534;9.062;2023-07-24T07:23:20;96200.50;;;25.60;46.55
76611;BME280;65503;48.534;9.062;2023-07-24T07:25:47;96181.03;;;26.60;44.00
76611;BME280;65503;48.534;9.062;2023-07-24T07:28:15;96197.06;;;27.23;42.06
76611;BME280;65503;48.534;9.062;2023-07-24T07:30:42;96204.53;;;27.30;41.36
76611;BME280;65503;48.534;9.062;2023-07-24T07:33:11;96207.22;;;27.30;42.07
76611;BME280;65503;48.534;9.062;2023-07-24T07:35:37;96215.69;;;27.09;42.41
76611;BME280;65503;48.534;9.062;2023-07-24T07:38:04;96213.97;;;26.85;42.72
76611;BME280;65503;48.534;9.062;2023-07-24T07:40:30;96209.34;;;26.51;43.77
76611;BME280;65503;48.534;9.062;2023-07-24T07:42:57;96210.88;;;26.20;44.50
76611;BME280;65503;48.534;9.062;2023-07-24T07:45:24;96213.84;;;25.84;45.60
76611;BME280;65503;48.534;9.062;2023-07-24T07:47:50;96220.41;;;25.71;46.24
76611;BME280;65503;48.534;9.062;2023-07-24T07:50:19;96227.91;;;25.62;46.89
76611;BME280;65503;48.534;9.062;2023-07-24T07:52:49;96232.66;;;25.40;46.92
76611;BME280;65503;48.534;9.062;2023-07-24T07:55:17;96245.50;;;25.31;47.40
76611;BME280;65503;48.534;9.062;2023-07-24T07:57:44;96244.75;;;25.06;48.29
76611;BME280;65503;48.534;9.062;2023-07-24T08:00:11;96246.25;;;24.80;48.94
76611;BME280;65503;48.534;9.062;2023-07-24T08:02:38;96250.59;;;24.72;49.44
76611;BME280;65503;48.534;9.062;2023-07-24T08:05:07;96240.75;;;24.52;50.50
76611;BME280;65503;48.534;9.062;2023-07-24T08:07:43;96237.78;;;24.08;52.10
76611;BME280;65503;48.534;9.062;2023-07-24T08:10:10;96240.88;;;23.86;53.36
76611;BME280;65503;48.534;9.062;2023-07-24T08:12:36;96229.91;;;23.58;54.91
76611;BME280;65503;48.534;9.062;2023-07-24T08:15:03;96236.63;;;23.11;55.65
76611;BME280;65503;48.534;9.062;2023-07-24T08:17:30;96238.44;;;23.19;56.24
76611;BME280;65503;48.534;9.062;2023-07-24T08:19:56;96221.50;;;23.27;56.17
76611;BME280;65503;48.534;9.062;2023-07-24T08:22:23;96220.88;;;23.42;55.00
76611;BME280;65503;48.534;9.062;2023-07-24T08:24:50;96217.84;;;23.52;54.89
76611;BME280;65503;48.534;9.062;2023-07-24T08:27:20;96212.25;;;23.57;54.42
76611;BME280;65503;48.534;9.062;2023-07-24T08:29:50;96209.09;;;23.55;54.39
76611;BME280;65503;48.534;9.062;2023-07-24T08:32:18;96192.09;;;23.51;53.26
76611;BME280;65503;48.534;9.062;2023-07-24T08:34:44;96176.97;;;23.59;53.42
76611;BME280;65503;48.534;9.062;2023-07-24T08:37:11;96176.00;;;23.75;53.34
76611;BME280;65503;48.534;9.062;2023-07-24T08:39:38;96167.06;;;23.83;53.05
76611;BME280;65503;48.534;9.062;2023-07-24T08:42:11;96161.16;;;23.90;52.51
76611;BME280;65503;48.534;9.062;2023-07-24T08:44:39;96154.44;;;23.96;53.42
76611;BME280;65503;48.534;9.062;2023-07-24T08:47:09;96146.25;;;24.05;53.14
76611;BME280;65503;48.534;9.062;2023-07-24T08:49:38;96144.00;;;23.82;52.49
76611;BME280;65503;48.534;9.062;2023-07-24T08:52:07;96138.53;;;23.91;52.17
76611;BME280;65503;48.534;9.062;2023-07-24T08:54:38;96135.50;;;23.93;51.67
76611;BME280;65503;48.534;9.062;2023-07-24T08:57:06;96137.97;;;24.10;52.83
76611;BME280;65503;48.534;9.062;2023-07-24T08:59:34;96130.03;;;24.25;52.80
76611;BME280;65503;48.534;9.062;2023-07-24T09:02:01;96146.34;;;24.57;52.21
76611;BME280;65503;48.534;9.062;2023-07-24T09:04:28;96147.16;;;24.57;51.11
76611;BME280;65503;48.534;9.062;2023-07-24T09:06:56;96146.84;;;24.99;50.31
76611;BME280;65503;48.534;9.062;2023-07-24T09:09:29;96148.13;;;25.17;49.26
76611;BME280;65503;48.534;9.062;2023-07-24T09:11:56;96149.75;;;25.49;48.37
76611;BME280;65503;48.534;9.062;2023-07-24T09:14:27;96140.34;;;25.71;48.74
76611;BME280;65503;48.534;9.062;2023-07-24T09:17:09;96141.81;;;25.69;47.71
76611;BME280;65503;48.534;9.062;2023-07-24T09:19:36;96132.88;;;25.52;48.30
76611;BME280;65503;48.534;9.062;2023-07-24T09:22:14;96125.56;;;25.37;48.83
76611;BME280;65503;48.534;9.062;2023-07-24T09:24:51;96117.81;;;25.20;49.82
76611;BME280;65503;48.534;9.062;2023-07-24T09:27:19;96111.59;;;25.04;50.58
76611;BME280;65503;48.534;9.062;2023-07-24T09:29:46;96102.94;;;24.70;51.94
76611;BME280;65503;48.534;9.062;2023-07-24T09:35:16;96103.47;;;23.87;55.96
76611;BME280;65503;48.534;9.062;2023-07-24T09:37:44;96104.69;;;23.78;56.90
76611;BME280;65503;48.534;9.062;2023-07-24T09:40:11;96102.47;;;23.80;57.62
76611;BME280;65503;48.534;9.062;2023-07-24T09:42:38;96112.53;;;23.83;57.85
76611;BME280;65503;48.534;9.062;2023-07-24T09:45:26;96111.53;;;23.87;57.30
76611;BME280;65503;48.534;9.062;2023-07-24T09:47:53;96122.50;;;23.82;57.39
76611;BME280;65503;48.534;9.062;2023-07-24T09:50:31;96139.09;;;23.84;57.50
76611;BME280;65503;48.534;9.062;2023-07-24T09:52:57;96161.22;;;23.81;56.72
76611;BME280;65503;48.534;9.062;2023-07-24T09:55:34;96178.03;;;23.78;56.96
76611;BME280;65503;48.534;9.062;2023-07-24T09:58:04;96181.16;;;23.68;57.14
76611;BME280;65503;48.534;9.062;2023-07-24T10:00:32;96184.84;;;23.43;58.53
76611;BME280;65503;48.534;9.062;2023-07-24T10:02:59;96168.16;;;23.04;61.42
76611;BME280;65503;48.534;9.062;2023-07-24T10:05:26;96175.72;;;22.61;62.28
76611;BME280;65503;48.534;9.062;2023-07-24T10:07:54;96180.31;;;22.31;64.22
76611;BME280;65503;48.534;9.062;2023-07-24T10:10:22;96184.19;;;22.04;65.12
76611;BME280;65503;48.534;9.062;2023-07-24T10:12:49;96188.03;;;21.86;65.40
76611;BME280;65503;48.534;9.062;2023-07-24T10:15:16;96205.22;;;21.85;66.47
76611;BME280;65503;48.534;9.062;2023-07-24T10:17:43;96214.53;;;21.79;66.61
76611;BME280;65503;48.534;9.062;2023-07-24T10:20:11;96224.31;;;21.75;67.22
76611;BME280;65503;48.534;9.062;2023-07-24T10:22:41;96204.44;;;21.76;66.95
76611;BME280;65503;48.534;9.062;2023-07-24T10:25:10;96222.75;;;21.74;66.16
76611;BME280;65503;48.534;9.062;2023-07-24T10:27:44;96242.44;;;21.69;66.58
76611;BME280;65503;48.534;9.062;2023-07-24T10:30:12;96249.22;;;21.67;65.60
76611;BME280;65503;48.534;9.062;2023-07-24T10:35:40;96264.03;;;21.56;65.64
76611;BME280;65503;48.534;9.062;2023-07-24T10:38:08;96265.78;;;21.52;66.15
76611;BME280;65503;48.534;9.062;2023-07-24T10:40:35;96279.16;;;21.52;66.34
76611;BME280;65503;48.534;9.062;2023-07-24T10:43:10;96279.31;;;21.21;67.17
76611;BME280;65503;48.534;9.062;2023-07-24T10:45:48;96284.66;;;21.12;68.81
76611;BME280;65503;48.534;9.062;2023-07-24T10:48:19;96278.16;;;20.96;69.66
76611;BME280;65503;48.534;9.062;2023-07-24T10:50:48;96278.78;;;20.93;70.00
76611;BME280;65503;48.534;9.062;2023-07-24T10:53:20;96278.78;;;20.93;70.27
76611;BME280;65503;48.534;9.062;2023-07-24T10:55:48;96293.59;;;20.99;70.44
76611;BME280;65503;48.534;9.062;2023-07-24T10:58:16;96295.16;;;21.00;69.56
76611;BME280;65503;48.534;9.062;2023-07-24T11:00:43;96277.84;;;20.89;69.23
76611;BME280;65503;48.534;9.062;2023-07-24T11:03:11;96259.75;;;20.94;69.94
76611;BME280;65503;48.534;9.062;2023-07-24T11:05:45;96279.72;;;20.97;69.68
76611;BME280;65503;48.534;9.062;2023-07-24T11:08:17;96287.44;;;20.98;70.11
76611;BME280;65503;48.534;9.062;2023-07-24T11:10:56;96292.66;;;21.03;70.34
76611;BME280;65503;48.534;9.062;2023-07-24T11:13:25;96281.94;;;20.95;69.96
76611;BME280;65503;48.534;9.062;2023-07-24T11:15:53;96269.47;;;20.90;70.36
76611;BME280;65503;48.534;9.062;2023-07-24T11:18:21;96268.88;;;20.93;71.21
76611;BME280;65503;48.534;9.062;2023-07-24T11:20:51;96231.28;;;21.07;71.42
76611;BME280;65503;48.534;9.062;2023-07-24T11:23:18;96195.72;;;21.15;72.69
76611;BME280;65503;48.534;9.062;2023-07-24T11:25:46;96168.63;;;21.08;72.58
76611;BME280;65503;48.534;9.062;2023-07-24T11:28:14;96120.44;;;21.25;72.64
76611;BME280;65503;48.534;9.062;2023-07-24T11:30:42;96118.03;;;21.58;72.58
76611;BME280;65503;48.534;9.062;2023-07-24T11:33:11;96098.31;;;22.01;71.49
76611;BME280;65503;48.534;9.062;2023-07-24T11:35:42;96083.59;;;22.57;70.80
76611;BME280;65503;48.534;9.062;2023-07-24T11:38:09;96112.25;;;22.86;69.63
76611;BME280;65503;48.534;9.062;2023-07-24T11:40:38;96111.41;;;23.27;67.31
76611;BME280;65503;48.534;9.062;2023-07-24T11:43:05;96102.22;;;23.61;64.37
76611;BME280;65503;48.534;9.062;2023-07-24T11:45:44;96104.16;;;23.97;65.46
76611;BME280;65503;48.534;9.062;2023-07-24T11:48:12;96102.44;;;24.04;62.86
76611;BME280;65503;48.534;9.062;2023-07-24T11:50:45;96105.34;;;24.48;61.68
76611;BME280;65503;48.534;9.062;2023-07-24T11:53:23;96113.88;;;24.78;63.52
76611;BME280;65503;48.534;9.062;2023-07-24T11:55:51;96117.19;;;25.11;62.69
76611;BME280;65503;48.534;9.062;2023-07-24T11:58:19;96123.13;;;25.32;60.78
76611;BME280;65503;48.534;9.062;2023-07-24T12:00:47;96139.50;;;25.39;59.67
76611;BME280;65503;48.534;9.062;2023-07-24T12:03:25;96140.88;;;25.33;59.59
76611;BME280;65503;48.534;9.062;2023-07-24T12:05:52;96153.31;;;25.38;57.63
76611;BME280;65503;48.534;9.062;2023-07-24T12:08:21;96154.75;;;25.35;57.13
76611;BME280;65503;48.534;9.062;2023-07-24T12:10:50;96157.03;;;25.33;58.46
76611;BME280;65503;48.534;9.062;2023-07-24T12:13:17;96159.91;;;25.40;60.39
76611;BME280;65503;48.534;9.062;2023-07-24T12:15:47;96162.91;;;25.51;56.43
76611;BME280;65503;48.534;9.062;2023-07-24T12:18:14;96157.28;;;25.28;56.50
76611;BME280;65503;48.534;9.062;2023-07-24T12:20:41;96151.13;;;25.43;55.13
76611;BME280;65503;48.534;9.062;2023-07-24T12:23:08;96152.91;;;25.51;56.78
76611;BME280;65503;48.534;9.062;2023-07-24T12:25:34;96141.56;;;25.74;55.13
76611;BME280;65503;48.534;9.062;2023-07-24T12:28:01;96140.53;;;25.78;55.08
76611;BME280;65503;48.534;9.062;2023-07-24T12:30:27;96149.03;;;25.65;52.66
76611;BME280;65503;48.534;9.062;2023-07-24T12:32:54;96140.81;;;25.45;52.95
76611;BME280;65503;48.534;9.062;2023-07-24T12:35:20;96132.63;;;25.42;53.29
76611;BME280;65503;48.534;9.062;2023-07-24T12:37:47;96125.25;;;25.55;53.83
76611;BME280;65503;48.534;9.062;2023-07-24T12:40:14;96116.25;;;25.63;51.37
76611;BME280;65503;48.534;9.062;2023-07-24T12:42:40;96112.72;;;25.46;51.70
76611;BME280;65503;48.534;9.062;2023-07-24T12:45:07;96107.31;;;25.46;52.64
76611;BME280;65503;48.534;9.062;2023-07-24T12:47:34;96105.06;;;25.48;52.44
76611;BME280;65503;48.534;9.062;2023-07-24T12:50:01;96103.00;;;25.58;51.92
76611;BME280;65503;48.534;9.062;2023-07-24T12:52:30;96080.97;;;25.68;51.13
76611;BME280;65503;48.534;9.062;2023-07-24T12:54:57;96075.97;;;25.54;49.88
76611;BME280;65503;48.534;9.062;2023-07-24T12:57:28;96071.47;;;25.89;50.82
76611;BME280;65503;48.534;9.062;2023-07-24T12:59:54;96073.94;;;26.29;49.60
76611;BME280;65503;48.534;9.062;2023-07-24T13:02:21;96080.91;;;26.30;48.89
76611;BME280;65503;48.534;9.062;2023-07-24T13:04:47;96089.00;;;26.30;49.48
76611;BME280;65503;48.534;9.062;2023-07-24T13:07:14;96091.31;;;26.48;47.92
76611;BME280;65503;48.534;9.062;2023-07-24T13:09:41;96095.00;;;26.78;49.54